sensor_id;sensor_type;location;lat;lon;timestamp;P1;durP1;ratioP1;P2;durP2;ratioP2
42194;SDS011;27863;49.440;11.102;2023-02-25T00:00:22;4.97;;;4.57;;
42194;SDS011;27863;49.440;11.102;2023-02-25T00:03:23;5.90;;;5.30;;
42194;SDS011;27863;49.440;11.102;2023-02-25T00:06:24;5.37;;;4.87;;
42194;SDS011;27863;49.440;11.102;2023-02-25T00:09:25;5.90;;;5.30;;
42194;SDS011;27863;49.440;11.102;2023-02-25T00:12:26;7.40;;;5.93;;
42194;SDS011;27863;49.440;11.102;2023-02-25T00:15:27;7.73;;;4.87;;
42194;SDS011;27863;49.440;11.102;2023-02-25T00:18:28;6.90;;;6.13;;
42194;SDS011;27863;49.440;11.102;2023-02-25T00:21:30;6.50;;;5.50;;
42194;SDS011;27863;49.440;11.102;2023-02-25T00:24:31;7.70;;;6.10;;
42194;SDS011;27863;49.440;11.102;2023-02-25T00:27:31;9.20;;;5.87;;
42194;SDS011;27863;49.440;11.102;2023-02-25T00:30:32;7.07;;;6.37;;
42194;SDS011;27863;49.440;11.102;2023-02-25T00:33:33;8.10;;;6.80;;
42194;SDS011;27863;49.440;11.102;2023-02-25T00:36:33;8.93;;;6.07;;
42194;SDS011;27863;49.440;11.102;2023-02-25T00:39:34;6.57;;;5.63;;
42194;SDS011;27863;49.440;11.102;2023-02-25T00:42:41;6.37;;;5.77;;
42194;SDS011;27863;49.440;11.102;2023-02-25T00:45:41;6.43;;;5.63;;
42194;SDS011;27863;49.440;11.102;2023-02-25T00:48:42;6.63;;;5.70;;
42194;SDS011;27863;49.440;11.102;2023-02-25T00:51:42;6.23;;;5.60;;
42194;SDS011;27863;49.440;11.102;2023-02-25T00:54:44;6.57;;;5.00;;
42194;SDS011;27863;49.440;11.102;2023-02-25T00:57:44;4.73;;;4.27;;
42194;SDS011;27863;49.440;11.102;2023-02-25T01:00:45;4.60;;;3.93;;
42194;SDS011;27863;49.440;11.102;2023-02-25T01:03:46;6.20;;;4.87;;
42194;SDS011;27863;49.440;11.102;2023-02-25T01:06:48;4.80;;;4.40;;
42194;SDS011;27863;49.440;11.102;2023-02-25T01:09:48;4.47;;;4.07;;
42194;SDS011;27863;49.440;11.102;2023-02-25T01:12:50;3.87;;;3.47;;
42194;SDS011;27863;49.440;11.102;2023-02-25T01:15:52;4.80;;;3.93;;
42194;SDS011;27863;49.440;11.102;2023-02-25T01:18:53;4.27;;;3.60;;
42194;SDS011;27863;49.440;11.102;2023-02-25T01:21:56;4.27;;;3.70;;
42194;SDS011;27863;49.440;11.102;2023-02-25T01:24:57;6.00;;;4.33;;
42194;SDS011;27863;49.440;11.102;2023-02-25T01:27:58;4.87;;;4.37;;
42194;SDS011;27863;49.440;11.102;2023-02-25T01:30:59;5.10;;;4.60;;
42194;SDS011;27863;49.440;11.102;2023-02-25T01:34:00;5.37;;;4.37;;
42194;SDS011;27863;49.440;11.102;2023-02-25T01:37:02;5.97;;;5.43;;
42194;SDS011;27863;49.440;11.102;2023-02-25T01:40:05;6.47;;;5.87;;
42194;SDS011;27863;49.440;11.102;2023-02-25T01:43:12;6.00;;;5.23;;
42194;SDS011;27863;49.440;11.102;2023-02-25T01:46:15;6.03;;;5.50;;
42194;SDS011;27863;49.440;11.102;2023-02-25T01:49:19;6.37;;;5.57;;
42194;SDS011;27863;49.440;11.102;2023-02-25T01:52:23;5.73;;;5.17;;
42194;SDS011;27863;49.440;11.102;2023-02-25T01:55:24;6.17;;;5.60;;
42194;SDS011;27863;49.440;11.102;2023-02-25T01:58:25;6.77;;;6.17;;
42194;SDS011;27863;49.440;11.102;2023-02-25T02:01:28;7.00;;;5.57;;
42194;SDS011;27863;49.440;11.102;2023-02-25T02:04:31;7.47;;;5.87;;
42194;SDS011;27863;49.440;11.102;2023-02-25T02:07:31;5.93;;;5.37;;
42194;SDS011;27863;49.440;11.102;2023-02-25T02:10:32;5.67;;;5.13;;
42194;SDS011;27863;49.440;11.102;2023-02-25T02:13:32;7.57;;;5.17;;
42194;SDS011;27863;49.440;11.102;2023-02-25T02:26:32;6.07;;;4.77;;
42194;SDS011;27863;49.440;11.102;2023-02-25T02:33:29;5.47;;;4.97;;
42194;SDS011;27863;49.440;11.102;2023-02-25T02:40:23;5.90;;;4.70;;
42194;SDS011;27863;49.440;11.102;2023-02-25T02:47:18;4.23;;;3.83;;
42194;SDS011;27863;49.440;11.102;2023-02-25T02:53:46;5.00;;;3.90;;
42194;SDS011;27863;49.440;11.102;2023-02-25T02:56:50;3.87;;;3.20;;
42194;SDS011;27863;49.440;11.102;2023-02-25T02:59:59;5.13;;;3.47;;
42194;SDS011;27863;49.440;11.102;2023-02-25T03:03:21;5.83;;;4.77;;
42194;SDS011;27863;49.440;11.102;2023-02-25T03:06:36;8.00;;;4.00;;
42194;SDS011;27863;49.440;11.102;2023-02-25T03:09:39;4.10;;;3.70;;
42194;SDS011;27863;49.440;11.102;2023-02-25T03:12:42;6.50;;;3.83;;
42194;SDS011;27863;49.440;11.102;2023-02-25T03:15:43;5.10;;;4.27;;
42194;SDS011;27863;49.440;11.102;2023-02-25T03:19:22;6.17;;;4.57;;
42194;SDS011;27863;49.440;11.102;2023-02-25T03:22:16;4.37;;;3.97;;
42194;SDS011;27863;49.440;11.102;2023-02-25T03:28:23;4.27;;;3.87;;
42194;SDS011;27863;49.440;11.102;2023-02-25T03:32:08;5.77;;;3.77;;
42194;SDS011;27863;49.440;11.102;2023-02-25T03:35:01;4.30;;;3.67;;
42194;SDS011;27863;49.440;11.102;2023-02-25T03:38:05;5.20;;;3.23;;
42194;SDS011;27863;49.440;11.102;2023-02-25T03:41:08;6.23;;;3.63;;
42194;SDS011;27863;49.440;11.102;2023-02-25T03:44:12;3.37;;;3.07;;
42194;SDS011;27863;49.440;11.102;2023-02-25T03:47:16;3.40;;;3.07;;
42194;SDS011;27863;49.440;11.102;2023-02-25T03:50:19;5.00;;;2.50;;
42194;SDS011;27863;49.440;11.102;2023-02-25T03:53:29;4.37;;;3.23;;
42194;SDS011;27863;49.440;11.102;2023-02-25T03:56:40;3.70;;;2.40;;
42194;SDS011;27863;49.440;11.102;2023-02-25T03:59:45;4.30;;;2.30;;
42194;SDS011;27863;49.440;11.102;2023-02-25T04:02:46;4.83;;;2.80;;
42194;SDS011;27863;49.440;11.102;2023-02-25T04:05:47;4.93;;;3.10;;
42194;SDS011;27863;49.440;11.102;2023-02-25T04:08:47;8.67;;;2.50;;
42194;SDS011;27863;49.440;11.102;2023-02-25T04:11:48;2.67;;;2.30;;
42194;SDS011;27863;49.440;11.102;2023-02-25T04:14:49;3.13;;;2.67;;
42194;SDS011;27863;49.440;11.102;2023-02-25T04:17:50;7.07;;;2.17;;
42194;SDS011;27863;49.440;11.102;2023-02-25T04:20:52;2.27;;;1.97;;
42194;SDS011;27863;49.440;11.102;2023-02-25T04:23:54;3.53;;;2.27;;
42194;SDS011;27863;49.440;11.102;2023-02-25T04:26:54;2.63;;;1.90;;
42194;SDS011;27863;49.440;11.102;2023-02-25T04:29:57;4.60;;;2.33;;
42194;SDS011;27863;49.440;11.102;2023-02-25T04:32:58;3.33;;;2.13;;
42194;SDS011;27863;49.440;11.102;2023-02-25T04:35:58;4.97;;;2.67;;
42194;SDS011;27863;49.440;11.102;2023-02-25T04:39:00;4.13;;;2.13;;
42194;SDS011;27863;49.440;11.102;2023-02-25T04:42:02;4.43;;;2.20;;
42194;SDS011;27863;49.440;11.102;2023-02-25T04:45:03;3.17;;;2.03;;
42194;SDS011;27863;49.440;11.102;2023-02-25T04:48:05;3.30;;;1.93;;
42194;SDS011;27863;49.440;11.102;2023-02-25T04:51:07;1.60;;;1.50;;
42194;SDS011;27863;49.440;11.102;2023-02-25T04:54:07;2.87;;;2.53;;
42194;SDS011;27863;49.440;11.102;2023-02-25T04:57:09;2.83;;;2.40;;
42194;SDS011;27863;49.440;11.102;2023-02-25T05:00:12;4.47;;;1.80;;
42194;SDS011;27863;49.440;11.102;2023-02-25T05:03:16;2.87;;;1.80;;
42194;SDS011;27863;49.440;11.102;2023-02-25T05:06:16;3.47;;;2.40;;
42194;SDS011;27863;49.440;11.102;2023-02-25T05:09:17;2.70;;;1.73;;
42194;SDS011;27863;49.440;11.102;2023-02-25T05:12:17;4.17;;;2.03;;
42194;SDS011;27863;49.440;11.102;2023-02-25T05:15:18;5.40;;;2.20;;
42194;SDS011;27863;49.440;11.102;2023-02-25T05:18:18;1.90;;;1.63;;
42194;SDS011;27863;49.440;11.102;2023-02-25T05:21:20;6.67;;;2.23;;
42194;SDS011;27863;49.440;11.102;2023-02-25T05:24:23;4.57;;;2.27;;
42194;SDS011;27863;49.440;11.102;2023-02-25T05:27:23;3.53;;;2.00;;
42194;SDS011;27863;49.440;11.102;2023-02-25T05:30:24;3.23;;;1.80;;
42194;SDS011;27863;49.440;11.102;2023-02-25T05:33:24;3.27;;;2.17;;
42194;SDS011;27863;49.440;11.102;2023-02-25T05:36:26;3.70;;;2.27;;
42194;SDS011;27863;49.440;11.102;2023-02-25T05:39:26;3.73;;;2.00;;
42194;SDS011;27863;49.440;11.102;2023-02-25T05:42:27;2.60;;;2.10;;
42194;SDS011;27863;49.440;11.102;2023-02-25T05:45:28;2.73;;;1.87;;
42194;SDS011;27863;49.440;11.102;2023-02-25T05:48:29;4.43;;;2.43;;
42194;SDS011;27863;49.440;11.102;2023-02-25T05:51:30;3.43;;;2.23;;
42194;SDS011;27863;49.440;11.102;2023-02-25T05:54:31;4.77;;;1.90;;
42194;SDS011;27863;49.440;11.102;2023-02-25T05:57:31;4.23;;;2.07;;
42194;SDS011;27863;49.440;11.102;2023-02-25T06:00:32;5.13;;;2.27;;
42194;SDS011;27863;49.440;11.102;2023-02-25T06:03:33;6.43;;;2.20;;
42194;SDS011;27863;49.440;11.102;2023-02-25T06:06:34;2.80;;;1.87;;
42194;SDS011;27863;49.440;11.102;2023-02-25T06:09:34;5.10;;;2.47;;
42194;SDS011;27863;49.440;11.102;2023-02-25T06:12:36;4.07;;;2.23;;
42194;SDS011;27863;49.440;11.102;2023-02-25T06:15:40;5.27;;;2.67;;
42194;SDS011;27863;49.440;11.102;2023-02-25T06:18:41;3.00;;;1.90;;
42194;SDS011;27863;49.440;11.102;2023-02-25T06:21:42;2.57;;;1.70;;
42194;SDS011;27863;49.440;11.102;2023-02-25T06:24:43;5.70;;;2.03;;
42194;SDS011;27863;49.440;11.102;2023-02-25T06:27:44;3.90;;;2.83;;
42194;SDS011;27863;49.440;11.102;2023-02-25T06:30:46;3.23;;;2.17;;
42194;SDS011;27863;49.440;11.102;2023-02-25T06:33:47;3.47;;;2.10;;
42194;SDS011;27863;49.440;11.102;2023-02-25T06:36:49;6.57;;;2.27;;
42194;SDS011;27863;49.440;11.102;2023-02-25T06:39:51;6.63;;;1.97;;
42194;SDS011;27863;49.440;11.102;2023-02-25T06:42:53;5.23;;;1.77;;
42194;SDS011;27863;49.440;11.102;2023-02-25T06:45:53;2.07;;;1.67;;
42194;SDS011;27863;49.440;11.102;2023-02-25T06:48:54;3.60;;;2.33;;
42194;SDS011;27863;49.440;11.102;2023-02-25T06:51:56;2.63;;;1.83;;
42194;SDS011;27863;49.440;11.102;2023-02-25T06:54:57;4.63;;;2.20;;
42194;SDS011;27863;49.440;11.102;2023-02-25T06:57:57;5.03;;;2.00;;
42194;SDS011;27863;49.440;11.102;2023-02-25T07:00:58;5.43;;;1.70;;
42194;SDS011;27863;49.440;11.102;2023-02-25T07:03:58;1.90;;;1.70;;
42194;SDS011;27863;49.440;11.102;2023-02-25T07:06:59;3.47;;;1.90;;
42194;SDS011;27863;49.440;11.102;2023-02-25T07:10:02;5.73;;;1.87;;
42194;SDS011;27863;49.440;11.102;2023-02-25T07:13:05;3.67;;;1.80;;
42194;SDS011;27863;49.440;11.102;2023-02-25T07:16:06;3.67;;;1.57;;
42194;SDS011;27863;49.440;11.102;2023-02-25T07:19:07;2.60;;;1.73;;
42194;SDS011;27863;49.440;11.102;2023-02-25T07:22:10;4.57;;;1.73;;
42194;SDS011;27863;49.440;11.102;2023-02-25T07:25:16;5.30;;;2.33;;
42194;SDS011;27863;49.440;11.102;2023-02-25T07:28:18;2.00;;;1.80;;
42194;SDS011;27863;49.440;11.102;2023-02-25T07:31:18;5.43;;;2.23;;
42194;SDS011;27863;49.440;11.102;2023-02-25T07:34:20;3.90;;;1.73;;
42194;SDS011;27863;49.440;11.102;2023-02-25T07:37:21;3.57;;;2.53;;
42194;SDS011;27863;49.440;11.102;2023-02-25T07:40:22;2.10;;;1.60;;
42194;SDS011;27863;49.440;11.102;2023-02-25T07:43:23;9.20;;;1.87;;
42194;SDS011;27863;49.440;11.102;2023-02-25T07:46:24;9.67;;;2.53;;
42194;SDS011;27863;49.440;11.102;2023-02-25T07:49:25;4.80;;;2.00;;
42194;SDS011;27863;49.440;11.102;2023-02-25T07:52:25;8.80;;;2.87;;
42194;SDS011;27863;49.440;11.102;2023-02-25T07:55:26;5.60;;;2.30;;
42194;SDS011;27863;49.440;11.102;2023-02-25T07:58:27;2.53;;;1.57;;
42194;SDS011;27863;49.440;11.102;2023-02-25T08:01:28;4.77;;;1.80;;
42194;SDS011;27863;49.440;11.102;2023-02-25T08:04:30;2.53;;;1.83;;
42194;SDS011;27863;49.440;11.102;2023-02-25T08:07:31;3.70;;;2.07;;
42194;SDS011;27863;49.440;11.102;2023-02-25T08:10:31;3.60;;;2.33;;
42194;SDS011;27863;49.440;11.102;2023-02-25T08:13:32;2.57;;;1.77;;
42194;SDS011;27863;49.440;11.102;2023-02-25T08:16:32;3.70;;;2.50;;
42194;SDS011;27863;49.440;11.102;2023-02-25T08:19:33;7.57;;;3.07;;
42194;SDS011;27863;49.440;11.102;2023-02-25T08:22:34;3.53;;;1.93;;
42194;SDS011;27863;49.440;11.102;2023-02-25T08:25:34;6.00;;;2.13;;
42194;SDS011;27863;49.440;11.102;2023-02-25T08:28:35;6.53;;;1.97;;
42194;SDS011;27863;49.440;11.102;2023-02-25T08:31:37;10.97;;;2.47;;
42194;SDS011;27863;49.440;11.102;2023-02-25T08:34:37;4.37;;;1.63;;
42194;SDS011;27863;49.440;11.102;2023-02-25T08:37:38;2.90;;;2.23;;
42194;SDS011;27863;49.440;11.102;2023-02-25T08:40:38;5.90;;;1.93;;
42194;SDS011;27863;49.440;11.102;2023-02-25T08:43:39;6.67;;;2.23;;
42194;SDS011;27863;49.440;11.102;2023-02-25T08:46:40;4.27;;;2.30;;
42194;SDS011;27863;49.440;11.102;2023-02-25T08:49:41;3.97;;;1.90;;
42194;SDS011;27863;49.440;11.102;2023-02-25T08:52:42;3.40;;;1.80;;
42194;SDS011;27863;49.440;11.102;2023-02-25T08:55:43;4.27;;;2.33;;
42194;SDS011;27863;49.440;11.102;2023-02-25T08:58:45;3.53;;;2.13;;
42194;SDS011;27863;49.440;11.102;2023-02-25T09:01:52;6.07;;;2.60;;
42194;SDS011;27863;49.440;11.102;2023-02-25T09:04:55;5.13;;;2.30;;
42194;SDS011;27863;49.440;11.102;2023-02-25T09:07:56;7.63;;;2.13;;
42194;SDS011;27863;49.440;11.102;2023-02-25T09:11:03;3.00;;;2.50;;
42194;SDS011;27863;49.440;11.102;2023-02-25T09:14:04;4.70;;;2.10;;
42194;SDS011;27863;49.440;11.102;2023-02-25T09:17:05;5.63;;;2.77;;
42194;SDS011;27863;49.440;11.102;2023-02-25T09:20:07;3.33;;;2.10;;
42194;SDS011;27863;49.440;11.102;2023-02-25T09:23:10;5.43;;;2.30;;
42194;SDS011;27863;49.440;11.102;2023-02-25T09:26:11;5.50;;;2.47;;
42194;SDS011;27863;49.440;11.102;2023-02-25T09:29:12;3.23;;;2.17;;
42194;SDS011;27863;49.440;11.102;2023-02-25T09:32:17;5.13;;;2.47;;
42194;SDS011;27863;49.440;11.102;2023-02-25T09:35:19;5.30;;;1.80;;
42194;SDS011;27863;49.440;11.102;2023-02-25T09:38:19;2.57;;;2.03;;
42194;SDS011;27863;49.440;11.102;2023-02-25T09:41:24;3.97;;;2.10;;
42194;SDS011;27863;49.440;11.102;2023-02-25T09:44:40;4.40;;;2.27;;
42194;SDS011;27863;49.440;11.102;2023-02-25T09:48:05;2.57;;;1.90;;
42194;SDS011;27863;49.440;11.102;2023-02-25T09:51:20;2.60;;;1.93;;
42194;SDS011;27863;49.440;11.102;2023-02-25T09:54:24;3.97;;;1.83;;
42194;SDS011;27863;49.440;11.102;2023-02-25T09:57:39;3.27;;;2.37;;
42194;SDS011;27863;49.440;11.102;2023-02-25T10:00:45;4.30;;;2.10;;
42194;SDS011;27863;49.440;11.102;2023-02-25T10:07:33;2.50;;;2.00;;
42194;SDS011;27863;49.440;11.102;2023-02-25T10:13:40;3.23;;;2.10;;
42194;SDS011;27863;49.440;11.102;2023-02-25T10:23:38;5.37;;;2.17;;
42194;SDS011;27863;49.440;11.102;2023-02-25T10:26:58;2.83;;;1.33;;
42194;SDS011;27863;49.440;11.102;2023-02-25T10:33:44;4.93;;;1.73;;
42194;SDS011;27863;49.440;11.102;2023-02-25T10:36:49;3.50;;;1.53;;
42194;SDS011;27863;49.440;11.102;2023-02-25T10:39:56;2.63;;;1.80;;
42194;SDS011;27863;49.440;11.102;2023-02-25T10:42:58;4.10;;;2.17;;
42194;SDS011;27863;49.440;11.102;2023-02-25T10:49:14;3.03;;;1.70;;
42194;SDS011;27863;49.440;11.102;2023-02-25T10:52:17;3.80;;;1.67;;
42194;SDS011;27863;49.440;11.102;2023-02-25T10:55:25;4.90;;;2.33;;
42194;SDS011;27863;49.440;11.102;2023-02-25T10:58:48;3.00;;;1.60;;
42194;SDS011;27863;49.440;11.102;2023-02-25T11:02:19;5.80;;;2.07;;
42194;SDS011;27863;49.440;11.102;2023-02-25T11:08:35;2.83;;;1.80;;
42194;SDS011;27863;49.440;11.102;2023-02-25T11:11:36;4.00;;;2.07;;
42194;SDS011;27863;49.440;11.102;2023-02-25T11:14:37;3.13;;;2.03;;
42194;SDS011;27863;49.440;11.102;2023-02-25T11:17:42;3.00;;;1.90;;
42194;SDS011;27863;49.440;11.102;2023-02-25T11:20:50;4.20;;;1.87;;
42194;SDS011;27863;49.440;11.102;2023-02-25T11:23:52;2.23;;;1.60;;
42194;SDS011;27863;49.440;11.102;2023-02-25T11:26:54;5.87;;;1.80;;
42194;SDS011;27863;49.440;11.102;2023-02-25T11:29:54;3.00;;;1.77;;
42194;SDS011;27863;49.440;11.102;2023-02-25T11:33:02;5.30;;;1.80;;
42194;SDS011;27863;49.440;11.102;2023-02-25T11:36:05;4.70;;;3.10;;
42194;SDS011;27863;49.440;11.102;2023-02-25T11:42:26;3.97;;;2.43;;
42194;SDS011;27863;49.440;11.102;2023-02-25T11:45:29;5.27;;;2.37;;
42194;SDS011;27863;49.440;11.102;2023-02-25T11:55:23;7.47;;;2.53;;
42194;SDS011;27863;49.440;11.102;2023-02-25T11:58:37;3.13;;;2.17;;
42194;SDS011;27863;49.440;11.102;2023-02-25T12:05:30;1.57;;;1.27;;
42194;SDS011;27863;49.440;11.102;2023-02-25T12:08:45;2.83;;;1.73;;
42194;SDS011;27863;49.440;11.102;2023-02-25T12:12:07;2.33;;;2.03;;
42194;SDS011;27863;49.440;11.102;2023-02-25T12:19:26;5.03;;;2.20;;
42194;SDS011;27863;49.440;11.102;2023-02-25T12:25:47;2.37;;;2.00;;
42194;SDS011;27863;49.440;11.102;2023-02-25T12:29:33;3.90;;;2.70;;
42194;SDS011;27863;49.440;11.102;2023-02-25T12:39:27;7.30;;;3.00;;
42194;SDS011;27863;49.440;11.102;2023-02-25T12:46:02;3.00;;;2.70;;
42194;SDS011;27863;49.440;11.102;2023-02-25T12:55:17;3.30;;;1.70;;
42194;SDS011;27863;49.440;11.102;2023-02-25T12:58:39;4.10;;;1.93;;
42194;SDS011;27863;49.440;11.102;2023-02-25T13:12:14;2.50;;;1.30;;
42194;SDS011;27863;49.440;11.102;2023-02-25T13:18:45;1.10;;;1.00;;
42194;SDS011;27863;49.440;11.102;2023-02-25T13:28:41;1.20;;;0.73;;
42194;SDS011;27863;49.440;11.102;2023-02-25T13:42:01;0.70;;;0.70;;
42194;SDS011;27863;49.440;11.102;2023-02-25T13:55:17;2.70;;;0.97;;
42194;SDS011;27863;49.440;11.102;2023-02-25T13:58:35;1.43;;;0.80;;
42194;SDS011;27863;49.440;11.102;2023-02-25T14:39:31;1.23;;;0.70;;
42194;SDS011;27863;49.440;11.102;2023-02-25T14:42:42;6.10;;;1.07;;
42194;SDS011;27863;49.440;11.102;2023-02-25T14:49:38;1.17;;;1.07;;
42194;SDS011;27863;49.440;11.102;2023-02-25T15:06:35;9.57;;;6.23;;
42194;SDS011;27863;49.440;11.102;2023-02-25T15:10:00;5.87;;;2.53;;
42194;SDS011;27863;49.440;11.102;2023-02-25T15:22:37;1.23;;;0.70;;
42194;SDS011;27863;49.440;11.102;2023-02-25T15:26:17;1.40;;;1.20;;
42194;SDS011;27863;49.440;11.102;2023-02-25T15:29:19;2.03;;;0.93;;
42194;SDS011;27863;49.440;11.102;2023-02-25T15:32:29;0.93;;;0.90;;
42194;SDS011;27863;49.440;11.102;2023-02-25T15:35:51;2.10;;;1.57;;
42194;SDS011;27863;49.440;11.102;2023-02-25T15:38:54;2.70;;;1.30;;
42194;SDS011;27863;49.440;11.102;2023-02-25T15:42:01;1.07;;;0.87;;
42194;SDS011;27863;49.440;11.102;2023-02-25T15:48:40;1.30;;;1.20;;
42194;SDS011;27863;49.440;11.102;2023-02-25T15:51:42;1.63;;;1.43;;
42194;SDS011;27863;49.440;11.102;2023-02-25T15:54:51;2.43;;;1.70;;
42194;SDS011;27863;49.440;11.102;2023-02-25T15:57:52;1.67;;;1.33;;
42194;SDS011;27863;49.440;11.102;2023-02-25T16:00:54;1.50;;;1.40;;
42194;SDS011;27863;49.440;11.102;2023-02-25T16:07:41;2.73;;;1.67;;
42194;SDS011;27863;49.440;11.102;2023-02-25T16:10:46;2.80;;;1.60;;
42194;SDS011;27863;49.440;11.102;2023-02-25T16:13:47;4.93;;;2.10;;
42194;SDS011;27863;49.440;11.102;2023-02-25T16:16:49;1.63;;;1.53;;
42194;SDS011;27863;49.440;11.102;2023-02-25T16:19:53;1.23;;;1.13;;
42194;SDS011;27863;49.440;11.102;2023-02-25T16:22:57;1.50;;;1.40;;
42194;SDS011;27863;49.440;11.102;2023-02-25T16:35:52;2.80;;;1.53;;
42194;SDS011;27863;49.440;11.102;2023-02-25T16:39:09;1.10;;;1.10;;
42194;SDS011;27863;49.440;11.102;2023-02-25T16:42:17;0.73;;;0.70;;
42194;SDS011;27863;49.440;11.102;2023-02-25T16:45:23;0.60;;;0.60;;
42194;SDS011;27863;49.440;11.102;2023-02-25T16:51:34;1.13;;;1.00;;
42194;SDS011;27863;49.440;11.102;2023-02-25T16:54:38;0.73;;;0.73;;
42194;SDS011;27863;49.440;11.102;2023-02-25T16:57:40;5.30;;;4.63;;
42194;SDS011;27863;49.440;11.102;2023-02-25T17:03:53;1.93;;;1.53;;
42194;SDS011;27863;49.440;11.102;2023-02-25T17:10:28;2.37;;;1.67;;
42194;SDS011;27863;49.440;11.102;2023-02-25T17:13:31;1.73;;;1.43;;
42194;SDS011;27863;49.440;11.102;2023-02-25T17:16:36;1.40;;;1.20;;
42194;SDS011;27863;49.440;11.102;2023-02-25T17:19:37;1.87;;;1.50;;
42194;SDS011;27863;49.440;11.102;2023-02-25T17:22:38;1.63;;;1.27;;
42194;SDS011;27863;49.440;11.102;2023-02-25T17:25:42;1.40;;;1.20;;
42194;SDS011;27863;49.440;11.102;2023-02-25T17:28:47;1.90;;;1.70;;
42194;SDS011;27863;49.440;11.102;2023-02-25T17:31:50;1.50;;;1.40;;
42194;SDS011;27863;49.440;11.102;2023-02-25T17:34:53;1.23;;;1.10;;
42194;SDS011;27863;49.440;11.102;2023-02-25T17:37:57;6.73;;;5.70;;
42194;SDS011;27863;49.440;11.102;2023-02-25T17:40:57;2.27;;;1.70;;
42194;SDS011;27863;49.440;11.102;2023-02-25T17:43:58;1.90;;;1.50;;
42194;SDS011;27863;49.440;11.102;2023-02-25T17:46:58;1.20;;;1.10;;
42194;SDS011;27863;49.440;11.102;2023-02-25T17:56:45;1.30;;;1.20;;
42194;SDS011;27863;49.440;11.102;2023-02-25T18:00:24;1.23;;;0.97;;
42194;SDS011;27863;49.440;11.102;2023-02-25T18:03:26;1.87;;;1.10;;
42194;SDS011;27863;49.440;11.102;2023-02-25T18:09:43;1.50;;;1.40;;
42194;SDS011;27863;49.440;11.102;2023-02-25T18:12:44;3.10;;;1.03;;
42194;SDS011;27863;49.440;11.102;2023-02-25T18:15:47;2.93;;;1.70;;
42194;SDS011;27863;49.440;11.102;2023-02-25T18:19:37;1.00;;;0.90;;
42194;SDS011;27863;49.440;11.102;2023-02-25T18:22:39;1.00;;;1.00;;
42194;SDS011;27863;49.440;11.102;2023-02-25T18:25:47;1.37;;;1.23;;
42194;SDS011;27863;49.440;11.102;2023-02-25T18:28:51;3.73;;;1.47;;
42194;SDS011;27863;49.440;11.102;2023-02-25T18:31:52;1.93;;;1.10;;
42194;SDS011;27863;49.440;11.102;2023-02-25T18:34:53;2.43;;;1.53;;
42194;SDS011;27863;49.440;11.102;2023-02-25T18:37:53;1.73;;;0.90;;
42194;SDS011;27863;49.440;11.102;2023-02-25T18:40:55;1.73;;;1.10;;
42194;SDS011;27863;49.440;11.102;2023-02-25T18:43:55;1.17;;;1.00;;
42194;SDS011;27863;49.440;11.102;2023-02-25T18:46:56;0.73;;;0.73;;
42194;SDS011;27863;49.440;11.102;2023-02-25T18:49:56;1.67;;;1.03;;
42194;SDS011;27863;49.440;11.102;2023-02-25T18:52:57;1.40;;;1.23;;
42194;SDS011;27863;49.440;11.102;2023-02-25T18:55:59;2.83;;;1.73;;
42194;SDS011;27863;49.440;11.102;2023-02-25T18:58:59;1.00;;;0.90;;
42194;SDS011;27863;49.440;11.102;2023-02-25T19:02:00;1.97;;;1.77;;
42194;SDS011;27863;49.440;11.102;2023-02-25T19:05:00;1.70;;;1.27;;
42194;SDS011;27863;49.440;11.102;2023-02-25T19:08:01;2.97;;;0.90;;
42194;SDS011;27863;49.440;11.102;2023-02-25T19:11:30;1.43;;;1.33;;
42194;SDS011;27863;49.440;11.102;2023-02-25T19:14:35;1.30;;;1.20;;
42194;SDS011;27863;49.440;11.102;2023-02-25T19:17:36;1.57;;;1.30;;
42194;SDS011;27863;49.440;11.102;2023-02-25T19:20:36;1.10;;;1.10;;
42194;SDS011;27863;49.440;11.102;2023-02-25T19:23:37;1.10;;;1.10;;
42194;SDS011;27863;49.440;11.102;2023-02-25T19:26:37;1.20;;;1.10;;
42194;SDS011;27863;49.440;11.102;2023-02-25T19:29:38;1.20;;;1.00;;
42194;SDS011;27863;49.440;11.102;2023-02-25T19:32:40;1.07;;;1.00;;
42194;SDS011;27863;49.440;11.102;2023-02-25T19:35:41;2.47;;;1.70;;
42194;SDS011;27863;49.440;11.102;2023-02-25T19:38:43;1.47;;;1.33;;
42194;SDS011;27863;49.440;11.102;2023-02-25T19:41:44;2.10;;;1.47;;
42194;SDS011;27863;49.440;11.102;2023-02-25T19:44:44;2.47;;;1.47;;
42194;SDS011;27863;49.440;11.102;2023-02-25T19:47:45;2.03;;;1.50;;
42194;SDS011;27863;49.440;11.102;2023-02-25T19:50:46;1.70;;;1.60;;
42194;SDS011;27863;49.440;11.102;2023-02-25T19:53:47;1.77;;;1.67;;
42194;SDS011;27863;49.440;11.102;2023-02-25T19:56:47;1.20;;;1.17;;
42194;SDS011;27863;49.440;11.102;2023-02-25T19:59:48;1.10;;;1.10;;
42194;SDS011;27863;49.440;11.102;2023-02-25T20:02:49;1.43;;;1.30;;
42194;SDS011;27863;49.440;11.102;2023-02-25T20:05:53;1.20;;;1.00;;
42194;SDS011;27863;49.440;11.102;2023-02-25T20:08:54;1.77;;;1.40;;
42194;SDS011;27863;49.440;11.102;2023-02-25T20:11:56;3.73;;;1.40;;
42194;SDS011;27863;49.440;11.102;2023-02-25T20:14:56;1.53;;;1.43;;
42194;SDS011;27863;49.440;11.102;2023-02-25T20:17:57;1.90;;;1.60;;
42194;SDS011;27863;49.440;11.102;2023-02-25T20:20:57;1.50;;;1.40;;
42194;SDS011;27863;49.440;11.102;2023-02-25T20:23:58;1.27;;;1.00;;
42194;SDS011;27863;49.440;11.102;2023-02-25T20:26:59;0.93;;;0.90;;
42194;SDS011;27863;49.440;11.102;2023-02-25T20:30:00;1.13;;;1.03;;
42194;SDS011;27863;49.440;11.102;2023-02-25T20:33:00;0.83;;;0.80;;
42194;SDS011;27863;49.440;11.102;2023-02-25T20:36:03;0.90;;;0.90;;
42194;SDS011;27863;49.440;11.102;2023-02-25T20:42:38;1.53;;;1.07;;
42194;SDS011;27863;49.440;11.102;2023-02-25T20:45:38;1.30;;;1.07;;
42194;SDS011;27863;49.440;11.102;2023-02-25T20:48:39;1.13;;;1.00;;
42194;SDS011;27863;49.440;11.102;2023-02-25T20:51:42;2.03;;;1.10;;
42194;SDS011;27863;49.440;11.102;2023-02-25T20:54:45;1.47;;;0.97;;
42194;SDS011;27863;49.440;11.102;2023-02-25T20:57:46;0.93;;;0.93;;
42194;SDS011;27863;49.440;11.102;2023-02-25T21:00:47;1.43;;;1.33;;
42194;SDS011;27863;49.440;11.102;2023-02-25T21:03:47;0.70;;;0.70;;
42194;SDS011;27863;49.440;11.102;2023-02-25T21:06:49;1.60;;;0.80;;
42194;SDS011;27863;49.440;11.102;2023-02-25T21:09:49;0.80;;;0.80;;
42194;SDS011;27863;49.440;11.102;2023-02-25T21:12:50;0.60;;;0.50;;
42194;SDS011;27863;49.440;11.102;2023-02-25T21:15:56;0.80;;;0.80;;
42194;SDS011;27863;49.440;11.102;2023-02-25T21:19:02;1.67;;;0.97;;
42194;SDS011;27863;49.440;11.102;2023-02-25T21:22:03;0.80;;;0.80;;
42194;SDS011;27863;49.440;11.102;2023-02-25T21:25:04;0.70;;;0.70;;
42194;SDS011;27863;49.440;11.102;2023-02-25T21:28:05;1.70;;;0.90;;
42194;SDS011;27863;49.440;11.102;2023-02-25T21:31:08;1.33;;;1.10;;
42194;SDS011;27863;49.440;11.102;2023-02-25T21:34:12;0.87;;;0.80;;
42194;SDS011;27863;49.440;11.102;2023-02-25T21:37:15;0.87;;;0.60;;
42194;SDS011;27863;49.440;11.102;2023-02-25T21:40:16;2.73;;;0.80;;
42194;SDS011;27863;49.440;11.102;2023-02-25T21:43:18;0.80;;;0.80;;
42194;SDS011;27863;49.440;11.102;2023-02-25T21:46:20;0.57;;;0.57;;
42194;SDS011;27863;49.440;11.102;2023-02-25T21:49:21;1.37;;;0.70;;
42194;SDS011;27863;49.440;11.102;2023-02-25T21:52:21;0.60;;;0.60;;
42194;SDS011;27863;49.440;11.102;2023-02-25T21:55:25;1.03;;;0.80;;
42194;SDS011;27863;49.440;11.102;2023-02-25T21:58:25;1.27;;;1.00;;
42194;SDS011;27863;49.440;11.102;2023-02-25T22:01:33;0.80;;;0.80;;
42194;SDS011;27863;49.440;11.102;2023-02-25T22:04:35;1.93;;;0.83;;